Time;durP1;ratioP1;P1;durP2;ratioP2;P2;SDS_P1;SDS_P2;PMS_P1;PMS_P2;Temp;Humidity;BMP_temperature;BMP_pressure;BME280_temperature;BME280_humidity;BME280_pressure;Samples;Min_cycle;Max_cycle;Signal;HPM_P1;HPM_P2
2023/04/30 00:01:20;;;;;;;1.30;0.97;;;;;;;;;;5066390;27;84040;-53
2023/04/30 00:03:48;;;;;;;1.10;1.00;;;;;;;;;;5066380;27;82793;-55
2023/04/30 00:06:18;;;;;;;1.50;1.23;;;;;;;;;;5066746;27;82165;-54
2023/04/30 00:08:46;;;;;;;0.93;0.87;;;;;;;;;;5066477;27;83855;-54
2023/04/30 00:11:15;;;;;;;0.97;0.80;;;;;;;;;;5066735;27;83074;-54
2023/04/30 00:13:43;;;;;;;1.07;0.70;;;;;;;;;;5066751;27;82728;-54
2023/04/30 00:16:11;;;;;;;1.50;1.00;;;;;;;;;;5066307;27;82889;-54
2023/04/30 00:18:40;;;;;;;0.63;0.63;;;;;;;;;;5066769;27;82852;-54
2023/04/30 00:21:08;;;;;;;2.87;1.00;;;;;;;;;;5066597;27;81890;-54
2023/04/30 00:23:38;;;;;;;1.10;1.00;;;;;;;;;;5066289;27;83723;-53
2023/04/30 00:26:06;;;;;;;3.67;0.90;;;;;;;;;;5066527;27;81973;-54
2023/04/30 00:28:34;;;;;;;0.80;0.80;;;;;;;;;;5065818;27;82755;-54
2023/04/30 00:31:05;;;;;;;1.43;0.80;;;;;;;;;;5066590;27;83398;-54
2023/04/30 00:33:34;;;;;;;0.77;0.73;;;;;;;;;;5066901;27;82951;-53
2023/04/30 00:36:02;;;;;;;0.60;0.60;;;;;;;;;;5066145;27;81771;-54
2023/04/30 00:38:30;;;;;;;0.93;0.70;;;;;;;;;;5066386;27;83967;-54
2023/04/30 00:41:00;;;;;;;0.70;0.70;;;;;;;;;;5066034;27;85185;-54
2023/04/30 00:43:28;;;;;;;1.03;1.00;;;;;;;;;;5065609;27;83651;-54
2023/04/30 00:45:57;;;;;;;0.70;0.70;;;;;;;;;;5065805;27;81895;-54
2023/04/30 00:48:26;;;;;;;1.83;0.97;;;;;;;;;;5066208;27;83803;-54
2023/04/30 00:50:55;;;;;;;2.17;0.60;;;;;;;;;;5065529;27;82132;-54
2023/04/30 00:53:23;;;;;;;1.10;1.00;;;;;;;;;;5066666;27;83991;-54
2023/04/30 00:55:51;;;;;;;1.30;0.77;;;;;;;;;;5066489;27;81861;-54
2023/04/30 00:58:21;;;;;;;1.80;1.00;;;;;;;;;;5066697;27;83915;-54
2023/04/30 01:00:49;;;;;;;1.27;0.83;;;;;;;;;;5065936;27;83269;-54
2023/04/30 01:03:18;;;;;;;1.37;1.00;;;;;;;;;;5066275;27;82981;-54
2023/04/30 01:05:46;;;;;;;0.77;0.70;;;;;;;;;;5065076;27;82969;-54
2023/04/30 01:08:14;;;;;;;1.20;0.73;;;;;;;;;;5065839;27;83015;-54
2023/04/30 01:10:49;;;;;;;0.60;0.60;;;;;;;;;;5065520;27;84164;-54
2023/04/30 01:13:18;;;;;;;0.77;0.70;;;;;;;;;;5066263;27;82585;-54
2023/04/30 01:15:48;;;;;;;1.10;0.77;;;;;;;;;;5066172;27;82595;-54
2023/04/30 01:18:17;;;;;;;1.47;1.00;;;;;;;;;;5065406;27;82036;-54
2023/04/30 01:20:49;;;;;;;0.80;0.73;;;;;;;;;;5065336;27;84022;-54
2023/04/30 01:23:19;;;;;;;0.70;0.70;;;;;;;;;;5066108;27;83827;-54
2023/04/30 01:25:54;;;;;;;0.70;0.70;;;;;;;;;;5065727;27;81736;-54
2023/04/30 01:28:24;;;;;;;0.80;0.67;;;;;;;;;;5065955;27;83905;-54
2023/04/30 01:30:53;;;;;;;1.03;0.80;;;;;;;;;;5064992;27;83987;-54
2023/04/30 01:33:21;;;;;;;0.50;0.50;;;;;;;;;;5065826;27;83696;-54
2023/04/30 01:35:54;;;;;;;0.80;0.77;;;;;;;;;;5065460;27;81935;-55
2023/04/30 01:38:25;;;;;;;0.93;0.90;;;;;;;;;;5065525;27;82716;-54
2023/04/30 01:40:54;;;;;;;0.70;0.70;;;;;;;;;;5063903;27;83365;-54
2023/04/30 01:43:26;;;;;;;0.60;0.60;;;;;;;;;;5064894;27;83793;-54
2023/04/30 01:45:58;;;;;;;0.77;0.60;;;;;;;;;;5065379;27;81931;-54
2023/04/30 01:48:28;;;;;;;2.30;0.90;;;;;;;;;;5065792;27;82701;-55
2023/04/30 01:50:59;;;;;;;0.83;0.83;;;;;;;;;;5064842;27;82770;-54
2023/04/30 01:53:30;;;;;;;0.70;0.70;;;;;;;;;;5065249;27;83770;-55
2023/04/30 01:55:58;;;;;;;1.07;0.97;;;;;;;;;;5064839;27;82771;-54
2023/04/30 01:58:28;;;;;;;0.67;0.67;;;;;;;;;;5064821;27;82994;-56
2023/04/30 02:00:56;;;;;;;1.80;0.90;;;;;;;;;;5065265;27;82819;-54
2023/04/30 02:03:24;;;;;;;0.50;0.50;;;;;;;;;;5065009;27;83902;-54
2023/04/30 02:05:53;;;;;;;0.93;0.90;;;;;;;;;;5064969;27;81903;-54
2023/04/30 02:08:22;;;;;;;0.60;0.60;;;;;;;;;;5065166;27;84220;-54
2023/04/30 02:10:50;;;;;;;1.50;0.87;;;;;;;;;;5064949;27;82715;-55
2023/04/30 02:13:18;;;;;;;0.60;0.60;;;;;;;;;;5065280;27;83918;-54
2023/04/30 02:15:48;;;;;;;1.20;1.00;;;;;;;;;;5064974;27;81995;-55
2023/04/30 02:18:16;;;;;;;0.63;0.60;;;;;;;;;;5063281;27;82928;-55
2023/04/30 02:20:45;;;;;;;0.70;0.70;;;;;;;;;;5061587;27;83194;-54
2023/04/30 02:23:13;;;;;;;0.90;0.70;;;;;;;;;;5063561;27;83338;-55
2023/04/30 02:25:41;;;;;;;2.07;0.90;;;;;;;;;;5063554;27;82122;-54
2023/04/30 02:28:10;;;;;;;0.60;0.60;;;;;;;;;;5063755;27;82725;-54
2023/04/30 02:30:38;;;;;;;1.13;0.87;;;;;;;;;;5064029;27;84193;-54
2023/04/30 02:33:11;;;;;;;0.50;0.50;;;;;;;;;;5064003;27;83867;-54
2023/04/30 02:35:41;;;;;;;2.93;0.67;;;;;;;;;;5063583;27;82008;-54
2023/04/30 02:38:09;;;;;;;0.60;0.60;;;;;;;;;;5063930;27;83983;-54
2023/04/30 02:40:37;;;;;;;0.70;0.70;;;;;;;;;;5063828;27;82663;-54
2023/04/30 02:43:06;;;;;;;0.50;0.50;;;;;;;;;;5063569;27;84057;-54
2023/04/30 02:45:34;;;;;;;0.70;0.53;;;;;;;;;;5063521;27;82946;-54
2023/04/30 02:48:02;;;;;;;0.50;0.50;;;;;;;;;;5063638;27;82915;-54
2023/04/30 02:50:32;;;;;;;2.17;0.60;;;;;;;;;;5063844;27;84163;-54
2023/04/30 02:53:00;;;;;;;0.57;0.57;;;;;;;;;;5066003;27;83916;-54
2023/04/30 02:55:29;;;;;;;0.73;0.73;;;;;;;;;;5067398;27;82082;-54
2023/04/30 02:57:58;;;;;;;0.30;0.30;;;;;;;;;;5065956;27;82471;-54
2023/04/30 03:00:27;;;;;;;1.70;0.70;;;;;;;;;;5066533;27;84135;-54
2023/04/30 03:02:55;;;;;;;1.27;1.17;;;;;;;;;;5066954;27;82750;-55
2023/04/30 03:05:24;;;;;;;0.97;0.83;;;;;;;;;;5066890;27;81977;-54
2023/04/30 03:07:54;;;;;;;0.50;0.50;;;;;;;;;;5066030;27;83808;-54
2023/04/30 03:10:23;;;;;;;1.00;0.77;;;;;;;;;;5064809;27;85130;-54
2023/04/30 03:12:52;;;;;;;0.90;0.60;;;;;;;;;;5067276;27;84547;-54
2023/04/30 03:15:20;;;;;;;0.90;0.73;;;;;;;;;;5066798;27;83239;-54
2023/04/30 03:17:49;;;;;;;1.07;0.40;;;;;;;;;;5066325;27;84003;-54
2023/04/30 03:20:17;;;;;;;0.90;0.83;;;;;;;;;;5067238;27;83976;-54
2023/04/30 03:22:46;;;;;;;0.60;0.60;;;;;;;;;;5067183;27;84003;-55
2023/04/30 03:25:15;;;;;;;1.53;0.70;;;;;;;;;;5067159;27;81913;-54
2023/04/30 03:27:44;;;;;;;0.40;0.40;;;;;;;;;;5066271;27;83818;-56
2023/04/30 03:30:12;;;;;;;1.20;0.77;;;;;;;;;;5067636;27;83003;-56
2023/04/30 03:32:40;;;;;;;0.87;0.67;;;;;;;;;;5067508;27;82746;-56
2023/04/30 03:35:09;;;;;;;0.53;0.53;;;;;;;;;;5067340;27;82915;-56
2023/04/30 03:37:38;;;;;;;0.50;0.50;;;;;;;;;;5067302;27;82628;-56
2023/04/30 03:40:07;;;;;;;0.50;0.43;;;;;;;;;;5066707;27;84048;-55
2023/04/30 03:42:36;;;;;;;0.60;0.60;;;;;;;;;;5066851;27;83742;-54
2023/04/30 03:45:05;;;;;;;0.63;0.63;;;;;;;;;;5067297;27;81832;-55
2023/04/30 03:47:34;;;;;;;2.63;1.00;;;;;;;;;;5067413;27;83674;-54
2023/04/30 03:50:02;;;;;;;1.83;0.80;;;;;;;;;;5064655;27;88143;-55
2023/04/30 03:52:32;;;;;;;1.00;0.80;;;;;;;;;;5064275;27;88003;-54
2023/04/30 03:55:00;;;;;;;0.80;0.80;;;;;;;;;;5064992;27;86950;-55
2023/04/30 03:57:29;;;;;;;3.23;1.10;;;;;;;;;;5064913;27;86893;-55
2023/04/30 03:59:58;;;;;;;0.43;0.43;;;;;;;;;;5063784;27;89229;-54
2023/04/30 04:02:27;;;;;;;1.57;1.00;;;;;;;;;;5064574;27;89749;-54
2023/04/30 04:04:55;;;;;;;1.13;0.90;;;;;;;;;;5063556;27;87075;-55
2023/04/30 04:07:23;;;;;;;1.07;0.50;;;;;;;;;;5064110;27;86984;-54
2023/04/30 04:09:52;;;;;;;0.60;0.60;;;;;;;;;;5064210;27;89078;-54
2023/04/30 04:12:20;;;;;;;0.60;0.60;;;;;;;;;;5064009;27;86880;-54
2023/04/30 04:14:48;;;;;;;2.83;1.20;;;;;;;;;;5064458;27;86922;-54
2023/04/30 04:17:18;;;;;;;0.50;0.50;;;;;;;;;;5064336;27;86232;-54
2023/04/30 04:19:46;;;;;;;0.77;0.77;;;;;;;;;;5063935;27;89179;-54
2023/04/30 04:22:15;;;;;;;0.60;0.60;;;;;;;;;;5064099;27;88925;-55
2023/04/30 04:24:43;;;;;;;0.50;0.50;;;;;;;;;;5064160;27;88039;-54
2023/04/30 04:27:11;;;;;;;2.13;0.90;;;;;;;;;;5063924;27;86917;-55
2023/04/30 04:29:40;;;;;;;0.73;0.73;;;;;;;;;;5064473;27;89189;-54
2023/04/30 04:32:09;;;;;;;1.20;0.57;;;;;;;;;;5063423;27;88671;-54
2023/04/30 04:34:38;;;;;;;1.43;1.07;;;;;;;;;;5064217;27;86932;-54
2023/04/30 04:37:07;;;;;;;1.57;0.80;;;;;;;;;;5063904;27;86965;-54
2023/04/30 04:39:36;;;;;;;0.70;0.60;;;;;;;;;;5063970;27;89035;-54
2023/04/30 04:42:04;;;;;;;0.80;0.80;;;;;;;;;;5064495;27;86521;-54
2023/04/30 04:44:33;;;;;;;0.90;0.90;;;;;;;;;;5063900;27;87027;-54
2023/04/30 04:47:03;;;;;;;1.63;0.70;;;;;;;;;;5064185;27;87051;-54
2023/04/30 04:49:31;;;;;;;0.60;0.60;;;;;;;;;;5063255;27;89893;-54
2023/04/30 04:52:01;;;;;;;0.90;0.67;;;;;;;;;;5063428;27;89959;-54
2023/04/30 04:54:30;;;;;;;0.70;0.70;;;;;;;;;;5064312;27;88315;-56
2023/04/30 04:56:58;;;;;;;1.40;0.57;;;;;;;;;;5063506;27;88622;-54
2023/04/30 04:59:26;;;;;;;0.30;0.30;;;;;;;;;;5063326;27;89208;-53
2023/04/30 05:01:55;;;;;;;0.50;0.50;;;;;;;;;;5063628;27;88787;-54
2023/04/30 05:04:23;;;;;;;0.63;0.60;;;;;;;;;;5063769;27;87017;-54
2023/04/30 05:06:51;;;;;;;0.80;0.80;;;;;;;;;;5063669;27;86290;-54
2023/04/30 05:09:21;;;;;;;0.43;0.40;;;;;;;;;;5063157;27;89164;-56
2023/04/30 05:11:49;;;;;;;4.57;0.80;;;;;;;;;;5062792;27;87879;-54
2023/04/30 05:14:19;;;;;;;0.60;0.60;;;;;;;;;;5062539;27;88046;-54
2023/04/30 05:16:48;;;;;;;1.50;0.97;;;;;;;;;;5063712;27;86991;-54
2023/04/30 05:19:16;;;;;;;0.73;0.50;;;;;;;;;;5062965;27;88208;-54
2023/04/30 05:21:45;;;;;;;0.97;0.77;;;;;;;;;;5063169;27;88248;-54
2023/04/30 05:24:14;;;;;;;1.50;0.90;;;;;;;;;;5062384;27;87044;-54
2023/04/30 05:26:43;;;;;;;0.63;0.50;;;;;;;;;;5063142;27;87102;-54
2023/04/30 05:29:12;;;;;;;0.60;0.60;;;;;;;;;;5061742;27;89306;-54
2023/04/30 05:31:40;;;;;;;0.70;0.53;;;;;;;;;;5062936;27;87794;-54
2023/04/30 05:34:09;;;;;;;1.67;0.80;;;;;;;;;;5062837;27;87078;-55
2023/04/30 05:36:37;;;;;;;1.90;1.37;;;;;;;;;;5061944;27;87034;-55
2023/04/30 05:39:05;;;;;;;1.77;0.90;;;;;;;;;;5061597;27;90211;-55
2023/04/30 05:41:34;;;;;;;1.10;1.03;;;;;;;;;;5062592;27;90061;-55
2023/04/30 05:44:03;;;;;;;0.97;0.87;;;;;;;;;;5062277;27;87020;-55
2023/04/30 05:46:32;;;;;;;1.70;0.93;;;;;;;;;;5061264;27;87133;-55
2023/04/30 05:49:00;;;;;;;1.63;1.20;;;;;;;;;;5058758;27;89188;-55
2023/04/30 05:51:29;;;;;;;2.30;1.20;;;;;;;;;;5061621;27;87892;-55
2023/04/30 05:53:57;;;;;;;0.70;0.70;;;;;;;;;;5061382;27;86994;-55
2023/04/30 05:56:26;;;;;;;2.07;0.90;;;;;;;;;;5062467;27;86351;-55
2023/04/30 05:58:54;;;;;;;1.43;0.93;;;;;;;;;;5061582;27;88246;-55
2023/04/30 06:01:24;;;;;;;1.50;1.23;;;;;;;;;;5061799;27;87743;-55
2023/04/30 06:03:52;;;;;;;0.93;0.90;;;;;;;;;;5061402;27;89402;-55
2023/04/30 06:06:20;;;;;;;1.53;1.13;;;;;;;;;;5062249;27;87087;-55
2023/04/30 06:08:49;;;;;;;0.80;0.80;;;;;;;;;;5062218;27;89084;-55
2023/04/30 06:11:17;;;;;;;1.07;0.83;;;;;;;;;;5062520;27;89154;-55
2023/04/30 06:13:47;;;;;;;4.03;1.10;;;;;;;;;;5061899;27;87023;-55
2023/04/30 06:16:16;;;;;;;0.77;0.73;;;;;;;;;;5062389;27;86984;-55
2023/04/30 06:18:45;;;;;;;1.67;1.00;;;;;;;;;;5062003;27;88017;-55
2023/04/30 06:21:14;;;;;;;0.80;0.80;;;;;;;;;;5062377;27;88704;-55
2023/04/30 06:23:42;;;;;;;0.87;0.70;;;;;;;;;;5061986;27;87003;-55
2023/04/30 06:26:13;;;;;;;0.70;0.70;;;;;;;;;;5062042;27;87049;-54
2023/04/30 06:28:42;;;;;;;0.90;0.90;;;;;;;;;;5061182;27;90023;-55
2023/04/30 06:31:10;;;;;;;0.90;0.70;;;;;;;;;;5061185;27;87489;-55
2023/04/30 06:33:38;;;;;;;0.70;0.70;;;;;;;;;;5061516;27;86992;-55
2023/04/30 06:36:08;;;;;;;1.13;0.83;;;;;;;;;;5061227;27;87054;-53
2023/04/30 06:38:37;;;;;;;0.70;0.70;;;;;;;;;;5061779;27;88100;-55
2023/04/30 06:41:05;;;;;;;1.23;0.70;;;;;;;;;;5061247;27;88700;-55
2023/04/30 06:43:34;;;;;;;2.07;1.00;;;;;;;;;;5061299;27;87094;-55
2023/04/30 06:46:02;;;;;;;0.90;0.87;;;;;;;;;;5061553;27;86110;-54
2023/04/30 06:48:31;;;;;;;0.80;0.80;;;;;;;;;;5061914;27;89271;-54
2023/04/30 06:50:59;;;;;;;1.73;1.10;;;;;;;;;;5061193;27;87827;-54
2023/04/30 06:53:29;;;;;;;1.00;0.90;;;;;;;;;;5060837;27;87995;-54
2023/04/30 06:55:57;;;;;;;3.57;0.70;;;;;;;;;;5061123;27;87681;-55
2023/04/30 06:58:25;;;;;;;1.43;1.03;;;;;;;;;;5061728;27;88232;-56
2023/04/30 07:00:54;;;;;;;2.03;1.00;;;;;;;;;;5060952;27;88957;-55
2023/04/30 07:03:22;;;;;;;1.57;1.00;;;;;;;;;;5061790;27;87011;-55
2023/04/30 07:05:52;;;;;;;1.37;1.27;;;;;;;;;;5061279;27;87024;-56
2023/04/30 07:08:21;;;;;;;1.53;1.10;;;;;;;;;;5061045;27;87963;-55
2023/04/30 07:10:51;;;;;;;1.23;1.10;;;;;;;;;;5061594;27;87657;-55
2023/04/30 07:13:19;;;;;;;1.20;0.70;;;;;;;;;;5061984;27;86817;-57
2023/04/30 07:15:47;;;;;;;1.30;0.73;;;;;;;;;;5061342;27;87993;-57
2023/04/30 07:18:16;;;;;;;1.43;0.90;;;;;;;;;;5059228;27;88951;-56
2023/04/30 07:20:44;;;;;;;0.53;0.53;;;;;;;;;;5060864;27;89956;-56
2023/04/30 07:23:12;;;;;;;0.80;0.80;;;;;;;;;;5061526;27;86966;-54
2023/04/30 07:25:41;;;;;;;2.63;1.23;;;;;;;;;;5061518;27;87073;-55
2023/04/30 07:28:11;;;;;;;1.07;0.97;;;;;;;;;;5061393;27;89136;-55
2023/04/30 07:30:39;;;;;;;1.70;1.10;;;;;;;;;;5061474;27;87581;-55
2023/04/30 07:33:08;;;;;;;1.03;0.93;;;;;;;;;;5054226;27;87036;-56
2023/04/30 07:35:36;;;;;;;1.63;1.00;;;;;;;;;;5061138;27;86279;-55
2023/04/30 07:38:05;;;;;;;2.17;0.90;;;;;;;;;;5060664;27;89221;-55
2023/04/30 07:40:33;;;;;;;2.93;1.00;;;;;;;;;;5063815;27;87949;-55
2023/04/30 07:43:04;;;;;;;1.40;1.30;;;;;;;;;;5063966;27;89255;-54
2023/04/30 07:45:34;;;;;;;1.27;1.10;;;;;;;;;;5064215;27;87062;-54
2023/04/30 07:48:02;;;;;;;3.50;1.00;;;;;;;;;;5064129;27;89131;-53
2023/04/30 07:50:33;;;;;;;5.07;1.27;;;;;;;;;;5062618;27;87764;-52
2023/04/30 07:53:02;;;;;;;2.70;1.00;;;;;;;;;;5064358;27;87071;-52
2023/04/30 07:55:30;;;;;;;1.87;0.90;;;;;;;;;;5064658;27;86950;-52
2023/04/30 07:58:01;;;;;;;2.77;1.10;;;;;;;;;;5062142;27;89112;-52
2023/04/30 08:00:29;;;;;;;0.90;0.90;;;;;;;;;;5062956;27;88933;-52
2023/04/30 08:03:00;;;;;;;0.80;0.80;;;;;;;;;;5064706;27;86846;-52
2023/04/30 08:05:28;;;;;;;1.73;0.87;;;;;;;;;;5064547;27;87111;-52
2023/04/30 08:07:57;;;;;;;0.87;0.60;;;;;;;;;;5062884;27;88731;-52
2023/04/30 08:10:25;;;;;;;3.97;0.90;;;;;;;;;;5062280;27;88931;-52
2023/04/30 08:12:53;;;;;;;0.87;0.87;;;;;;;;;;5062675;27;87118;-52
2023/04/30 08:15:22;;;;;;;1.07;0.90;;;;;;;;;;5063541;27;87121;-52
2023/04/30 08:17:50;;;;;;;2.53;0.80;;;;;;;;;;5062578;27;89142;-54
2023/04/30 08:20:22;;;;;;;0.80;0.80;;;;;;;;;;5063073;27;87736;-54
2023/04/30 08:22:51;;;;;;;0.97;0.80;;;;;;;;;;5063331;27;87001;-54
2023/04/30 08:25:19;;;;;;;1.37;1.10;;;;;;;;;;5063018;27;86326;-52
2023/04/30 08:27:47;;;;;;;1.20;0.60;;;;;;;;;;5063930;27;88016;-54
2023/04/30 08:30:16;;;;;;;1.00;0.90;;;;;;;;;;5063079;27;87651;-52
2023/04/30 08:32:44;;;;;;;1.27;0.97;;;;;;;;;;5062732;27;87945;-53
2023/04/30 08:35:13;;;;;;;1.30;1.03;;;;;;;;;;5063993;27;86945;-52
2023/04/30 08:37:42;;;;;;;1.27;1.07;;;;;;;;;;5063698;27;87042;-53
2023/04/30 08:40:12;;;;;;;1.17;0.80;;;;;;;;;;5063650;27;88923;-53
2023/04/30 08:42:42;;;;;;;1.27;1.07;;;;;;;;;;5064163;27;86991;-52
2023/04/30 08:45:11;;;;;;;0.80;0.80;;;;;;;;;;5063155;27;86967;-52
2023/04/30 08:47:40;;;;;;;1.37;0.53;;;;;;;;;;5062925;27;89226;-52
2023/04/30 08:50:09;;;;;;;4.33;0.80;;;;;;;;;;5063285;27;87839;-52
2023/04/30 08:52:37;;;;;;;1.00;0.70;;;;;;;;;;5063762;27;86926;-53
2023/04/30 08:55:09;;;;;;;0.70;0.70;;;;;;;;;;5063374;27;87020;-52
2023/04/30 08:57:38;;;;;;;1.20;0.70;;;;;;;;;;5062889;27;89844;-53
2023/04/30 09:00:07;;;;;;;2.50;1.17;;;;;;;;;;5063725;27;88924;-53
2023/04/30 09:02:35;;;;;;;1.17;1.00;;;;;;;;;;5063290;27;86998;-52
2023/04/30 09:05:04;;;;;;;1.87;0.97;;;;;;;;;;5063917;27;86939;-52
2023/04/30 09:07:32;;;;;;;0.63;0.63;;;;;;;;;;5063477;27;89101;-52
2023/04/30 09:10:02;;;;;;;0.70;0.70;;;;;;;;;;5063592;27;88490;-53
2023/04/30 09:12:31;;;;;;;1.43;0.97;;;;;;;;;;5063780;27;87007;-52
2023/04/30 09:15:01;;;;;;;0.77;0.77;;;;;;;;;;5063885;27;86268;-52
2023/04/30 09:17:29;;;;;;;0.63;0.50;;;;;;;;;;5063199;27;89034;-52
2023/04/30 09:20:06;;;;;;;1.30;1.10;;;;;;;;;;5063446;27;88045;-53
2023/04/30 09:22:35;;;;;;;1.43;0.90;;;;;;;;;;5062840;27;87933;-53
2023/04/30 09:25:04;;;;;;;0.40;0.40;;;;;;;;;;5063145;27;87014;-52
2023/04/30 09:27:33;;;;;;;0.97;0.77;;;;;;;;;;5063563;27;89242;-52
2023/04/30 09:30:02;;;;;;;0.80;0.57;;;;;;;;;;5062841;27;88993;-52
2023/04/30 09:32:30;;;;;;;1.20;0.67;;;;;;;;;;5062739;27;87006;-52
2023/04/30 09:34:58;;;;;;;0.90;0.90;;;;;;;;;;5062747;27;86858;-52
2023/04/30 09:37:35;;;;;;;1.07;0.90;;;;;;;;;;5062062;27;89097;-52
2023/04/30 09:40:04;;;;;;;1.03;0.77;;;;;;;;;;5063093;27;88870;-52
2023/04/30 09:42:34;;;;;;;0.40;0.40;;;;;;;;;;5046208;27;86906;-52
2023/04/30 09:45:02;;;;;;;1.00;0.70;;;;;;;;;;5063244;27;86925;-52
2023/04/30 09:47:31;;;;;;;0.90;0.90;;;;;;;;;;5061405;27;89203;-52
2023/04/30 09:50:00;;;;;;;1.40;0.90;;;;;;;;;;5062119;27;88882;-54
2023/04/30 09:52:28;;;;;;;0.70;0.70;;;;;;;;;;5062561;27;87037;-52
2023/04/30 09:54:56;;;;;;;1.13;0.80;;;;;;;;;;5046977;27;87011;-52
2023/04/30 09:57:25;;;;;;;0.73;0.73;;;;;;;;;;5062919;27;89241;-52
2023/04/30 09:59:56;;;;;;;0.57;0.57;;;;;;;;;;5062510;27;88476;-52
2023/04/30 10:02:25;;;;;;;0.97;0.80;;;;;;;;;;5062152;27;86788;-54
2023/04/30 10:04:54;;;;;;;0.53;0.50;;;;;;;;;;5062625;27;86184;-52
2023/04/30 10:07:23;;;;;;;0.67;0.67;;;;;;;;;;5061803;27;89172;-52
2023/04/30 10:09:52;;;;;;;0.70;0.50;;;;;;;;;;5062239;27;87772;-53
2023/04/30 10:12:21;;;;;;;0.50;0.50;;;;;;;;;;5061704;27;88030;-53
2023/04/30 10:14:51;;;;;;;0.57;0.50;;;;;;;;;;5062725;27;87053;-53
2023/04/30 10:17:21;;;;;;;0.40;0.40;;;;;;;;;;5062211;27;88212;-53
2023/04/30 10:19:49;;;;;;;0.83;0.50;;;;;;;;;;5061598;27;87748;-52
2023/04/30 10:22:19;;;;;;;0.50;0.50;;;;;;;;;;5062441;27;86826;-52
2023/04/30 10:24:48;;;;;;;1.07;0.50;;;;;;;;;;5061294;27;86985;-52
2023/04/30 10:27:16;;;;;;;1.47;0.63;;;;;;;;;;5061483;27;89318;-52
2023/04/30 10:29:44;;;;;;;0.77;0.70;;;;;;;;;;5061231;27;89094;-52
2023/04/30 10:32:13;;;;;;;2.33;0.73;;;;;;;;;;5061949;27;86936;-53
2023/04/30 10:34:46;;;;;;;0.67;0.60;;;;;;;;;;5061816;27;87016;-53
2023/04/30 10:37:17;;;;;;;0.70;0.70;;;;;;;;;;5059438;27;89057;-54
2023/04/30 10:39:45;;;;;;;0.90;0.60;;;;;;;;;;5061957;27;88761;-52
2023/04/30 10:42:14;;;;;;;1.23;0.70;;;;;;;;;;5062320;27;87031;-52
2023/04/30 10:44:42;;;;;;;0.77;0.73;;;;;;;;;;5062091;27;86997;-52
2023/04/30 10:47:10;;;;;;;0.50;0.50;;;;;;;;;;5062005;27;89166;-52
2023/04/30 10:49:41;;;;;;;0.90;0.43;;;;;;;;;;5061492;27;87791;-52
2023/04/30 10:52:11;;;;;;;0.40;0.40;;;;;;;;;;5062070;27;86969;-53
2023/04/30 10:54:40;;;;;;;0.50;0.50;;;;;;;;;;5062363;27;86354;-52
2023/04/30 10:57:12;;;;;;;0.60;0.50;;;;;;;;;;5060031;27;89203;-52
2023/04/30 10:59:43;;;;;;;0.60;0.60;;;;;;;;;;5059633;27;88964;-52
2023/04/30 11:02:12;;;;;;;0.77;0.77;;;;;;;;;;5060940;27;87984;-52
2023/04/30 11:04:59;;;;;;;0.63;0.60;;;;;;;;;;5061600;27;86982;-52
2023/04/30 11:07:28;;;;;;;0.53;0.53;;;;;;;;;;5060880;27;88935;-52
2023/04/30 11:09:57;;;;;;;0.90;0.50;;;;;;;;;;5061119;27;89014;-52
2023/04/30 11:12:28;;;;;;;0.50;0.50;;;;;;;;;;5061631;27;86966;-52
2023/04/30 11:15:00;;;;;;;0.50;0.50;;;;;;;;;;5065120;27;86932;-52
2023/04/30 11:17:29;;;;;;;0.83;0.70;;;;;;;;;;5064654;27;88112;-52
2023/04/30 11:20:00;;;;;;;1.53;0.63;;;;;;;;;;5065635;27;88744;-52
2023/04/30 11:22:34;;;;;;;0.53;0.50;;;;;;;;;;5064277;27;87007;-52
2023/04/30 11:25:06;;;;;;;0.77;0.77;;;;;;;;;;5064711;27;87021;-52
2023/04/30 11:27:35;;;;;;;1.27;0.70;;;;;;;;;;5065559;27;90179;-52
2023/04/30 11:30:04;;;;;;;0.47;0.47;;;;;;;;;;5085086;27;88654;-52
2023/04/30 11:32:33;;;;;;;0.50;0.50;;;;;;;;;;5073844;27;86979;-52
2023/04/30 11:35:02;;;;;;;0.53;0.53;;;;;;;;;;5064358;27;87088;-54
2023/04/30 11:37:33;;;;;;;1.57;0.60;;;;;;;;;;5064584;27;88157;-52
2023/04/30 11:40:03;;;;;;;0.53;0.53;;;;;;;;;;5064337;27;87932;-52
2023/04/30 11:42:33;;;;;;;0.73;0.73;;;;;;;;;;5064787;27;86996;-52
2023/04/30 11:45:05;;;;;;;0.67;0.67;;;;;;;;;;5064780;27;86334;-52
2023/04/30 11:47:43;;;;;;;0.40;0.40;;;;;;;;;;5064528;27;89229;-52
2023/04/30 11:50:12;;;;;;;0.40;0.40;;;;;;;;;;5064812;27;87864;-52
2023/04/30 11:52:42;;;;;;;0.67;0.50;;;;;;;;;;5064178;27;87874;-52
2023/04/30 11:55:15;;;;;;;0.50;0.50;;;;;;;;;;5064562;27;87413;-52
2023/04/30 11:57:43;;;;;;;0.77;0.50;;;;;;;;;;5067569;27;88073;-52
2023/04/30 12:00:12;;;;;;;0.83;0.70;;;;;;;;;;5084717;27;88914;-52
2023/04/30 12:02:41;;;;;;;0.50;0.50;;;;;;;;;;5084458;27;87125;-52
2023/04/30 12:05:14;;;;;;;0.50;0.50;;;;;;;;;;5085197;27;87060;-52
2023/04/30 12:07:46;;;;;;;0.50;0.50;;;;;;;;;;5084330;27;89228;-52
2023/04/30 12:10:15;;;;;;;0.37;0.37;;;;;;;;;;5084821;27;87897;-52
2023/04/30 12:12:44;;;;;;;0.40;0.40;;;;;;;;;;5084778;27;86882;-52
2023/04/30 12:15:13;;;;;;;0.50;0.50;;;;;;;;;;5084907;27;87058;-52
2023/04/30 12:17:42;;;;;;;0.70;0.60;;;;;;;;;;5084168;27;90117;-52
2023/04/30 12:20:11;;;;;;;0.80;0.60;;;;;;;;;;5084751;27;88550;-52
2023/04/30 12:22:39;;;;;;;2.70;0.67;;;;;;;;;;5081443;27;87068;-51
2023/04/30 12:25:10;;;;;;;2.57;0.90;;;;;;;;;;5063450;27;87678;-52
2023/04/30 12:27:38;;;;;;;0.87;0.80;;;;;;;;;;5064418;27;89244;-54
2023/04/30 12:30:08;;;;;;;0.87;0.87;;;;;;;;;;5064309;27;87726;-53
2023/04/30 12:32:40;;;;;;;1.40;0.73;;;;;;;;;;5064248;27;86944;-52
2023/04/30 12:35:09;;;;;;;1.33;1.00;;;;;;;;;;5064044;27;86240;-53
2023/04/30 12:37:37;;;;;;;0.60;0.60;;;;;;;;;;5063143;27;89149;-52
2023/04/30 12:40:06;;;;;;;0.97;0.60;;;;;;;;;;5063436;27;89079;-52
2023/04/30 12:42:36;;;;;;;0.80;0.80;;;;;;;;;;5063318;27;87969;-54
2023/04/30 12:45:05;;;;;;;0.70;0.60;;;;;;;;;;5063889;27;87036;-52
2023/04/30 12:47:33;;;;;;;0.93;0.70;;;;;;;;;;5063785;27;89280;-54
2023/04/30 12:50:05;;;;;;;0.33;0.33;;;;;;;;;;5064052;27;87854;-53
2023/04/30 12:52:33;;;;;;;0.60;0.60;;;;;;;;;;5064207;27;86892;-54
2023/04/30 12:55:14;;;;;;;1.90;0.70;;;;;;;;;;5063928;27;87038;-53
2023/04/30 12:57:51;;;;;;;0.93;0.83;;;;;;;;;;5063987;27;89068;-53
2023/04/30 13:00:21;;;;;;;1.20;0.90;;;;;;;;;;5063492;27;88897;-52
2023/04/30 13:02:50;;;;;;;0.77;0.67;;;;;;;;;;5063915;27;86844;-54
2023/04/30 13:05:18;;;;;;;0.80;0.80;;;;;;;;;;5063922;27;86987;-52
2023/04/30 13:07:48;;;;;;;1.43;0.67;;;;;;;;;;5063066;27;89832;-53
2023/04/30 13:10:17;;;;;;;0.40;0.40;;;;;;;;;;5062930;27;88700;-53
2023/04/30 13:12:46;;;;;;;1.43;0.93;;;;;;;;;;5063211;27;87073;-52
2023/04/30 13:15:15;;;;;;;0.50;0.50;;;;;;;;;;5062936;27;86943;-52
2023/04/30 13:17:43;;;;;;;0.50;0.50;;;;;;;;;;5063091;27;89166;-52
2023/04/30 13:20:12;;;;;;;0.83;0.60;;;;;;;;;;5063241;27;87904;-52
2023/04/30 13:22:40;;;;;;;0.43;0.43;;;;;;;;;;5063380;27;87006;-52
2023/04/30 13:25:09;;;;;;;0.73;0.73;;;;;;;;;;5063406;27;86154;-53
2023/04/30 13:27:37;;;;;;;0.90;0.73;;;;;;;;;;5062952;27;89192;-52
2023/04/30 13:30:08;;;;;;;0.40;0.40;;;;;;;;;;5062870;27;89226;-56
2023/04/30 13:32:36;;;;;;;0.57;0.57;;;;;;;;;;5062684;27;88895;-52
2023/04/30 13:35:05;;;;;;;0.40;0.40;;;;;;;;;;5063498;27;87025;-52
2023/04/30 13:37:34;;;;;;;0.53;0.53;;;;;;;;;;5061180;27;89035;-52
2023/04/30 13:40:03;;;;;;;1.90;0.60;;;;;;;;;;5063053;27;88925;-52
2023/04/30 13:42:32;;;;;;;0.50;0.50;;;;;;;;;;5063348;27;86979;-52
2023/04/30 13:45:00;;;;;;;0.40;0.40;;;;;;;;;;5062975;27;86939;-52
2023/04/30 13:47:30;;;;;;;0.60;0.60;;;;;;;;;;5061879;27;88978;-52
2023/04/30 13:49:58;;;;;;;0.60;0.57;;;;;;;;;;5063447;27;87594;-53
2023/04/30 13:52:26;;;;;;;0.43;0.43;;;;;;;;;;5062905;27;87042;-52
2023/04/30 13:54:56;;;;;;;0.40;0.40;;;;;;;;;;5063147;27;87054;-52
2023/04/30 13:57:24;;;;;;;0.40;0.40;;;;;;;;;;5062260;27;90495;-52
2023/04/30 13:59:52;;;;;;;0.50;0.50;;;;;;;;;;5062798;27;88777;-52
2023/04/30 14:02:21;;;;;;;0.83;0.80;;;;;;;;;;5062372;27;87030;-52
2023/04/30 14:04:51;;;;;;;0.30;0.30;;;;;;;;;;5062240;27;86982;-52
2023/04/30 14:07:33;;;;;;;2.47;0.60;;;;;;;;;;5062163;27;88055;-52
2023/04/30 14:10:02;;;;;;;0.50;0.50;;;;;;;;;;5062353;27;87794;-51
2023/04/30 14:12:30;;;;;;;0.47;0.47;;;;;;;;;;5062480;27;87049;-52
2023/04/30 14:14:59;;;;;;;1.07;0.60;;;;;;;;;;5063259;27;86220;-52
2023/04/30 14:17:28;;;;;;;0.43;0.43;;;;;;;;;;5062256;27;88058;-52
2023/04/30 14:19:58;;;;;;;0.20;0.20;;;;;;;;;;5061936;27;87872;-52
2023/04/30 14:22:26;;;;;;;0.50;0.50;;;;;;;;;;5061437;27;87922;-52
2023/04/30 14:24:55;;;;;;;1.20;0.57;;;;;;;;;;5062443;27;87047;-52
2023/04/30 14:27:24;;;;;;;0.30;0.30;;;;;;;;;;5061473;27;89318;-52
2023/04/30 14:29:52;;;;;;;0.83;0.43;;;;;;;;;;5061891;27;87889;-52
2023/04/30 14:32:21;;;;;;;3.93;0.33;;;;;;;;;;5061995;27;87016;-53
2023/04/30 14:34:49;;;;;;;0.30;0.30;;;;;;;;;;5062167;27;86982;-52
2023/04/30 14:37:19;;;;;;;0.33;0.33;;;;;;;;;;5061860;27;87797;-52
2023/04/30 14:39:47;;;;;;;0.47;0.43;;;;;;;;;;5062197;27;88978;-52
2023/04/30 14:42:16;;;;;;;0.40;0.40;;;;;;;;;;5061986;27;87004;-51
2023/04/30 14:44:44;;;;;;;0.37;0.37;;;;;;;;;;5061864;27;86998;-52
2023/04/30 14:47:13;;;;;;;0.50;0.50;;;;;;;;;;5061278;27;90150;-52
2023/04/30 14:49:41;;;;;;;0.50;0.50;;;;;;;;;;5064996;27;89868;-52
2023/04/30 14:52:10;;;;;;;0.30;0.30;;;;;;;;;;5065985;27;87042;-52
2023/04/30 14:54:39;;;;;;;0.53;0.40;;;;;;;;;;5063697;27;87017;-51